sensor_id;sensor_type;location;lat;lon;timestamp;P1;durP1;ratioP1;P2;durP2;ratioP2
29838;SDS011;18669;53.356;-1.464;2023-06-14T00:02:29;8.35;;;4.15;;
29838;SDS011;18669;53.356;-1.464;2023-06-14T00:05:14;5.07;;;3.30;;
29838;SDS011;18669;53.356;-1.464;2023-06-14T00:07:58;12.35;;;3.30;;
29838;SDS011;18669;53.356;-1.464;2023-06-14T00:10:44;9.73;;;3.42;;
29838;SDS011;18669;53.356;-1.464;2023-06-14T00:13:29;7.60;;;3.50;;
29838;SDS011;18669;53.356;-1.464;2023-06-14T00:16:14;10.85;;;3.95;;
29838;SDS011;18669;53.356;-1.464;2023-06-14T00:19:01;10.18;;;3.63;;
29838;SDS011;18669;53.356;-1.464;2023-06-14T00:21:49;8.38;;;4.15;;
29838;SDS011;18669;53.356;-1.464;2023-06-14T00:24:34;6.03;;;3.05;;
29838;SDS011;18669;53.356;-1.464;2023-06-14T00:27:19;7.70;;;3.50;;
29838;SDS011;18669;53.356;-1.464;2023-06-14T00:30:04;8.38;;;3.50;;
29838;SDS011;18669;53.356;-1.464;2023-06-14T00:32:49;13.27;;;3.33;;
29838;SDS011;18669;53.356;-1.464;2023-06-14T00:35:35;8.65;;;3.63;;
29838;SDS011;18669;53.356;-1.464;2023-06-14T00:38:20;7.80;;;3.30;;
29838;SDS011;18669;53.356;-1.464;2023-06-14T00:41:05;5.82;;;3.45;;
29838;SDS011;18669;53.356;-1.464;2023-06-14T00:43:50;12.32;;;3.45;;
29838;SDS011;18669;53.356;-1.464;2023-06-14T00:46:36;7.78;;;3.78;;
29838;SDS011;18669;53.356;-1.464;2023-06-14T00:49:21;9.63;;;4.10;;
29838;SDS011;18669;53.356;-1.464;2023-06-14T00:52:05;6.53;;;3.97;;
29838;SDS011;18669;53.356;-1.464;2023-06-14T00:54:50;8.40;;;3.70;;
29838;SDS011;18669;53.356;-1.464;2023-06-14T00:57:35;8.18;;;3.22;;
29838;SDS011;18669;53.356;-1.464;2023-06-14T01:00:22;7.50;;;3.33;;
29838;SDS011;18669;53.356;-1.464;2023-06-14T01:03:06;12.18;;;4.15;;
29838;SDS011;18669;53.356;-1.464;2023-06-14T01:05:53;8.20;;;3.85;;
29838;SDS011;18669;53.356;-1.464;2023-06-14T01:09:10;11.07;;;3.70;;
29838;SDS011;18669;53.356;-1.464;2023-06-14T01:15:18;17.50;;;4.65;;
29838;SDS011;18669;53.356;-1.464;2023-06-14T01:18:05;9.77;;;4.45;;
29838;SDS011;18669;53.356;-1.464;2023-06-14T01:20:50;4.72;;;3.63;;
29838;SDS011;18669;53.356;-1.464;2023-06-14T01:23:35;9.35;;;3.90;;
29838;SDS011;18669;53.356;-1.464;2023-06-14T01:26:20;7.43;;;3.78;;
29838;SDS011;18669;53.356;-1.464;2023-06-14T01:29:06;6.47;;;3.75;;
29838;SDS011;18669;53.356;-1.464;2023-06-14T01:31:52;10.15;;;4.38;;
29838;SDS011;18669;53.356;-1.464;2023-06-14T01:34:38;9.95;;;4.57;;
29838;SDS011;18669;53.356;-1.464;2023-06-14T01:37:23;7.60;;;4.00;;
29838;SDS011;18669;53.356;-1.464;2023-06-14T01:40:08;14.30;;;4.60;;
29838;SDS011;18669;53.356;-1.464;2023-06-14T01:45:40;12.10;;;5.03;;
29838;SDS011;18669;53.356;-1.464;2023-06-14T01:48:26;8.88;;;4.70;;
29838;SDS011;18669;53.356;-1.464;2023-06-14T01:51:11;12.60;;;4.72;;
29838;SDS011;18669;53.356;-1.464;2023-06-14T01:53:56;9.43;;;4.60;;
29838;SDS011;18669;53.356;-1.464;2023-06-14T01:56:41;11.25;;;5.18;;
29838;SDS011;18669;53.356;-1.464;2023-06-14T01:59:26;8.88;;;5.10;;
29838;SDS011;18669;53.356;-1.464;2023-06-14T02:02:11;10.43;;;4.80;;
29838;SDS011;18669;53.356;-1.464;2023-06-14T02:04:56;15.07;;;5.50;;
29838;SDS011;18669;53.356;-1.464;2023-06-14T02:07:41;9.48;;;5.00;;
29838;SDS011;18669;53.356;-1.464;2023-06-14T02:10:26;13.13;;;5.55;;
29838;SDS011;18669;53.356;-1.464;2023-06-14T02:13:11;8.57;;;4.95;;
29838;SDS011;18669;53.356;-1.464;2023-06-14T02:15:56;8.90;;;5.40;;
29838;SDS011;18669;53.356;-1.464;2023-06-14T02:18:41;11.93;;;5.53;;
29838;SDS011;18669;53.356;-1.464;2023-06-14T02:21:26;14.15;;;5.50;;
29838;SDS011;18669;53.356;-1.464;2023-06-14T02:24:11;10.73;;;6.40;;
29838;SDS011;18669;53.356;-1.464;2023-06-14T02:26:56;12.82;;;5.65;;
29838;SDS011;18669;53.356;-1.464;2023-06-14T02:29:40;13.48;;;6.00;;
29838;SDS011;18669;53.356;-1.464;2023-06-14T02:32:25;16.38;;;5.63;;
29838;SDS011;18669;53.356;-1.464;2023-06-14T02:35:11;11.35;;;6.25;;
29838;SDS011;18669;53.356;-1.464;2023-06-14T02:37:57;12.05;;;6.25;;
29838;SDS011;18669;53.356;-1.464;2023-06-14T02:40:42;13.05;;;6.85;;
29838;SDS011;18669;53.356;-1.464;2023-06-14T02:43:28;10.55;;;6.25;;
29838;SDS011;18669;53.356;-1.464;2023-06-14T02:46:13;15.33;;;7.07;;
29838;SDS011;18669;53.356;-1.464;2023-06-14T02:48:57;12.57;;;6.28;;
29838;SDS011;18669;53.356;-1.464;2023-06-14T02:51:42;13.07;;;6.20;;
29838;SDS011;18669;53.356;-1.464;2023-06-14T02:54:27;12.77;;;6.82;;
29838;SDS011;18669;53.356;-1.464;2023-06-14T02:57:12;17.98;;;7.03;;
29838;SDS011;18669;53.356;-1.464;2023-06-14T02:59:57;10.93;;;6.43;;
29838;SDS011;18669;53.356;-1.464;2023-06-14T03:02:42;14.00;;;7.05;;
29838;SDS011;18669;53.356;-1.464;2023-06-14T03:05:27;15.60;;;7.32;;
29838;SDS011;18669;53.356;-1.464;2023-06-14T03:08:13;11.23;;;7.10;;
29838;SDS011;18669;53.356;-1.464;2023-06-14T03:11:03;13.60;;;6.93;;
29838;SDS011;18669;53.356;-1.464;2023-06-14T03:13:49;12.80;;;7.07;;
29838;SDS011;18669;53.356;-1.464;2023-06-14T03:16:35;15.90;;;7.13;;
29838;SDS011;18669;53.356;-1.464;2023-06-14T03:19:21;14.30;;;6.67;;
29838;SDS011;18669;53.356;-1.464;2023-06-14T03:22:06;10.13;;;6.53;;
29838;SDS011;18669;53.356;-1.464;2023-06-14T03:24:52;12.45;;;7.07;;
29838;SDS011;18669;53.356;-1.464;2023-06-14T03:27:38;13.70;;;7.20;;
29838;SDS011;18669;53.356;-1.464;2023-06-14T03:30:23;12.27;;;7.50;;
29838;SDS011;18669;53.356;-1.464;2023-06-14T03:33:08;11.40;;;6.68;;
29838;SDS011;18669;53.356;-1.464;2023-06-14T03:35:53;13.52;;;6.95;;
29838;SDS011;18669;53.356;-1.464;2023-06-14T03:38:37;19.02;;;7.28;;
29838;SDS011;18669;53.356;-1.464;2023-06-14T03:41:22;10.93;;;7.35;;
29838;SDS011;18669;53.356;-1.464;2023-06-14T03:44:07;10.85;;;7.05;;
29838;SDS011;18669;53.356;-1.464;2023-06-14T03:46:52;13.95;;;7.00;;
29838;SDS011;18669;53.356;-1.464;2023-06-14T03:49:37;12.52;;;6.85;;
29838;SDS011;18669;53.356;-1.464;2023-06-14T03:52:21;9.48;;;6.78;;
29838;SDS011;18669;53.356;-1.464;2023-06-14T03:55:07;10.63;;;6.68;;
29838;SDS011;18669;53.356;-1.464;2023-06-14T03:57:52;12.60;;;7.15;;
29838;SDS011;18669;53.356;-1.464;2023-06-14T04:00:37;14.38;;;7.47;;
29838;SDS011;18669;53.356;-1.464;2023-06-14T04:03:22;11.25;;;7.22;;
29838;SDS011;18669;53.356;-1.464;2023-06-14T04:06:09;11.70;;;7.88;;
29838;SDS011;18669;53.356;-1.464;2023-06-14T04:08:54;15.95;;;7.57;;
29838;SDS011;18669;53.356;-1.464;2023-06-14T04:11:39;11.52;;;7.15;;
29838;SDS011;18669;53.356;-1.464;2023-06-14T04:14:23;14.35;;;7.45;;
29838;SDS011;18669;53.356;-1.464;2023-06-14T04:17:08;14.52;;;7.60;;
29838;SDS011;18669;53.356;-1.464;2023-06-14T04:19:53;16.42;;;8.05;;
29838;SDS011;18669;53.356;-1.464;2023-06-14T04:22:38;14.65;;;8.30;;
29838;SDS011;18669;53.356;-1.464;2023-06-14T04:25:23;15.38;;;7.30;;
29838;SDS011;18669;53.356;-1.464;2023-06-14T04:28:10;11.85;;;7.75;;
29838;SDS011;18669;53.356;-1.464;2023-06-14T04:30:59;16.10;;;7.45;;
29838;SDS011;18669;53.356;-1.464;2023-06-14T04:33:45;12.98;;;7.38;;
29838;SDS011;18669;53.356;-1.464;2023-06-14T04:36:32;11.68;;;7.40;;
29838;SDS011;18669;53.356;-1.464;2023-06-14T04:39:19;12.80;;;7.13;;
29838;SDS011;18669;53.356;-1.464;2023-06-14T04:42:07;16.50;;;8.00;;
29838;SDS011;18669;53.356;-1.464;2023-06-14T04:44:52;19.58;;;7.95;;
29838;SDS011;18669;53.356;-1.464;2023-06-14T04:47:40;11.65;;;7.03;;
29838;SDS011;18669;53.356;-1.464;2023-06-14T04:50:25;14.75;;;6.82;;
29838;SDS011;18669;53.356;-1.464;2023-06-14T04:53:10;15.52;;;7.10;;
29838;SDS011;18669;53.356;-1.464;2023-06-14T04:55:55;10.23;;;6.45;;
29838;SDS011;18669;53.356;-1.464;2023-06-14T04:58:40;12.18;;;6.85;;
29838;SDS011;18669;53.356;-1.464;2023-06-14T05:01:25;12.48;;;5.93;;
29838;SDS011;18669;53.356;-1.464;2023-06-14T05:04:10;11.05;;;7.05;;
29838;SDS011;18669;53.356;-1.464;2023-06-14T05:06:55;12.55;;;6.22;;
29838;SDS011;18669;53.356;-1.464;2023-06-14T05:09:41;9.00;;;5.47;;
29838;SDS011;18669;53.356;-1.464;2023-06-14T05:12:26;11.82;;;6.00;;
29838;SDS011;18669;53.356;-1.464;2023-06-14T05:15:11;9.00;;;5.80;;
29838;SDS011;18669;53.356;-1.464;2023-06-14T05:17:56;11.48;;;6.10;;
29838;SDS011;18669;53.356;-1.464;2023-06-14T05:20:41;8.52;;;4.82;;
29838;SDS011;18669;53.356;-1.464;2023-06-14T05:23:26;9.50;;;5.05;;
29838;SDS011;18669;53.356;-1.464;2023-06-14T05:26:11;8.40;;;4.70;;
29838;SDS011;18669;53.356;-1.464;2023-06-14T05:28:56;9.25;;;4.50;;
29838;SDS011;18669;53.356;-1.464;2023-06-14T05:31:41;8.27;;;4.75;;
29838;SDS011;18669;53.356;-1.464;2023-06-14T05:34:26;6.38;;;4.40;;
29838;SDS011;18669;53.356;-1.464;2023-06-14T05:37:11;8.30;;;5.05;;
29838;SDS011;18669;53.356;-1.464;2023-06-14T05:39:57;10.77;;;5.03;;
29838;SDS011;18669;53.356;-1.464;2023-06-14T05:42:42;15.05;;;7.25;;
29838;SDS011;18669;53.356;-1.464;2023-06-14T05:45:27;6.00;;;4.20;;
29838;SDS011;18669;53.356;-1.464;2023-06-14T05:48:12;10.02;;;4.40;;
29838;SDS011;18669;53.356;-1.464;2023-06-14T05:50:58;7.05;;;4.30;;
29838;SDS011;18669;53.356;-1.464;2023-06-14T05:53:53;8.50;;;4.50;;
29838;SDS011;18669;53.356;-1.464;2023-06-14T05:56:38;7.65;;;4.05;;
29838;SDS011;18669;53.356;-1.464;2023-06-14T05:59:23;6.47;;;3.92;;
29838;SDS011;18669;53.356;-1.464;2023-06-14T06:02:08;10.50;;;4.43;;
29838;SDS011;18669;53.356;-1.464;2023-06-14T06:04:53;11.48;;;4.07;;
29838;SDS011;18669;53.356;-1.464;2023-06-14T06:07:39;7.75;;;3.78;;
29838;SDS011;18669;53.356;-1.464;2023-06-14T06:10:29;8.23;;;3.90;;
29838;SDS011;18669;53.356;-1.464;2023-06-14T06:13:14;14.55;;;4.00;;
29838;SDS011;18669;53.356;-1.464;2023-06-14T06:16:00;5.50;;;3.45;;
29838;SDS011;18669;53.356;-1.464;2023-06-14T06:18:44;5.75;;;3.85;;
29838;SDS011;18669;53.356;-1.464;2023-06-14T06:21:30;6.00;;;3.38;;
29838;SDS011;18669;53.356;-1.464;2023-06-14T06:24:16;7.60;;;3.30;;
29838;SDS011;18669;53.356;-1.464;2023-06-14T06:27:01;7.75;;;3.95;;
29838;SDS011;18669;53.356;-1.464;2023-06-14T06:29:46;7.55;;;3.78;;
29838;SDS011;18669;53.356;-1.464;2023-06-14T06:32:32;7.90;;;3.08;;
29838;SDS011;18669;53.356;-1.464;2023-06-14T06:35:17;10.10;;;3.95;;
29838;SDS011;18669;53.356;-1.464;2023-06-14T06:38:02;6.28;;;3.50;;
29838;SDS011;18669;53.356;-1.464;2023-06-14T06:40:47;8.38;;;3.75;;
29838;SDS011;18669;53.356;-1.464;2023-06-14T06:43:32;8.27;;;3.75;;
29838;SDS011;18669;53.356;-1.464;2023-06-14T06:46:16;11.38;;;3.72;;
29838;SDS011;18669;53.356;-1.464;2023-06-14T06:49:03;8.55;;;3.97;;
29838;SDS011;18669;53.356;-1.464;2023-06-14T06:55:02;7.53;;;4.03;;
29838;SDS011;18669;53.356;-1.464;2023-06-14T06:57:47;9.18;;;3.67;;
29838;SDS011;18669;53.356;-1.464;2023-06-14T07:00:34;9.68;;;3.78;;
29838;SDS011;18669;53.356;-1.464;2023-06-14T07:03:19;10.30;;;3.78;;
29838;SDS011;18669;53.356;-1.464;2023-06-14T07:06:04;13.23;;;3.80;;
29838;SDS011;18669;53.356;-1.464;2023-06-14T07:08:49;10.02;;;4.13;;
29838;SDS011;18669;53.356;-1.464;2023-06-14T07:11:34;12.52;;;4.00;;
29838;SDS011;18669;53.356;-1.464;2023-06-14T07:14:19;15.15;;;4.05;;
29838;SDS011;18669;53.356;-1.464;2023-06-14T07:17:03;14.55;;;4.50;;
29838;SDS011;18669;53.356;-1.464;2023-06-14T07:19:48;15.27;;;4.85;;
29838;SDS011;18669;53.356;-1.464;2023-06-14T07:22:33;10.50;;;4.10;;
29838;SDS011;18669;53.356;-1.464;2023-06-14T07:25:18;19.30;;;4.53;;
29838;SDS011;18669;53.356;-1.464;2023-06-14T07:28:04;21.60;;;4.95;;
29838;SDS011;18669;53.356;-1.464;2023-06-14T07:30:49;8.65;;;3.95;;
29838;SDS011;18669;53.356;-1.464;2023-06-14T07:33:33;10.43;;;4.05;;
29838;SDS011;18669;53.356;-1.464;2023-06-14T07:36:18;10.85;;;4.07;;
29838;SDS011;18669;53.356;-1.464;2023-06-14T07:39:03;17.67;;;4.10;;
29838;SDS011;18669;53.356;-1.464;2023-06-14T07:41:50;15.80;;;3.83;;
29838;SDS011;18669;53.356;-1.464;2023-06-14T07:44:35;11.73;;;3.67;;
29838;SDS011;18669;53.356;-1.464;2023-06-14T07:47:20;12.80;;;3.38;;
29838;SDS011;18669;53.356;-1.464;2023-06-14T07:50:05;10.55;;;4.00;;
29838;SDS011;18669;53.356;-1.464;2023-06-14T07:52:50;9.70;;;3.70;;
29838;SDS011;18669;53.356;-1.464;2023-06-14T07:55:35;9.50;;;3.67;;
29838;SDS011;18669;53.356;-1.464;2023-06-14T07:58:21;10.67;;;3.53;;
29838;SDS011;18669;53.356;-1.464;2023-06-14T08:01:06;8.60;;;3.40;;
29838;SDS011;18669;53.356;-1.464;2023-06-14T08:03:52;12.63;;;3.57;;
29838;SDS011;18669;53.356;-1.464;2023-06-14T08:06:36;9.02;;;3.10;;
29838;SDS011;18669;53.356;-1.464;2023-06-14T08:09:21;7.72;;;2.85;;
29838;SDS011;18669;53.356;-1.464;2023-06-14T08:12:07;7.40;;;2.88;;
29838;SDS011;18669;53.356;-1.464;2023-06-14T08:14:53;14.73;;;3.38;;
29838;SDS011;18669;53.356;-1.464;2023-06-14T08:17:39;12.55;;;2.97;;
29838;SDS011;18669;53.356;-1.464;2023-06-14T08:20:24;10.18;;;2.67;;
29838;SDS011;18669;53.356;-1.464;2023-06-14T08:23:09;7.65;;;2.80;;
29838;SDS011;18669;53.356;-1.464;2023-06-14T08:25:54;5.60;;;2.30;;
29838;SDS011;18669;53.356;-1.464;2023-06-14T08:28:39;10.30;;;2.83;;
29838;SDS011;18669;53.356;-1.464;2023-06-14T08:31:24;5.93;;;3.13;;
29838;SDS011;18669;53.356;-1.464;2023-06-14T08:34:10;9.23;;;3.22;;
29838;SDS011;18669;53.356;-1.464;2023-06-14T08:36:54;13.88;;;2.80;;
29838;SDS011;18669;53.356;-1.464;2023-06-14T08:39:39;10.88;;;2.72;;
29838;SDS011;18669;53.356;-1.464;2023-06-14T08:42:24;8.63;;;2.60;;
29838;SDS011;18669;53.356;-1.464;2023-06-14T08:45:09;4.90;;;2.42;;
29838;SDS011;18669;53.356;-1.464;2023-06-14T08:47:54;11.48;;;3.10;;
29838;SDS011;18669;53.356;-1.464;2023-06-14T08:50:42;5.82;;;2.60;;
29838;SDS011;18669;53.356;-1.464;2023-06-14T08:53:28;10.52;;;2.65;;
29838;SDS011;18669;53.356;-1.464;2023-06-14T08:56:16;8.85;;;2.50;;
29838;SDS011;18669;53.356;-1.464;2023-06-14T08:59:01;11.13;;;2.30;;
29838;SDS011;18669;53.356;-1.464;2023-06-14T09:01:50;13.35;;;2.90;;
29838;SDS011;18669;53.356;-1.464;2023-06-14T09:04:36;10.15;;;2.75;;
29838;SDS011;18669;53.356;-1.464;2023-06-14T09:07:21;13.40;;;3.00;;
29838;SDS011;18669;53.356;-1.464;2023-06-14T09:10:07;11.15;;;2.75;;
29838;SDS011;18669;53.356;-1.464;2023-06-14T09:12:54;8.88;;;2.75;;
29838;SDS011;18669;53.356;-1.464;2023-06-14T09:15:39;6.65;;;2.25;;
29838;SDS011;18669;53.356;-1.464;2023-06-14T09:18:34;11.88;;;2.55;;
29838;SDS011;18669;53.356;-1.464;2023-06-14T09:21:25;17.25;;;3.22;;
29838;SDS011;18669;53.356;-1.464;2023-06-14T09:24:13;7.03;;;2.63;;
29838;SDS011;18669;53.356;-1.464;2023-06-14T09:26:58;13.68;;;2.90;;
29838;SDS011;18669;53.356;-1.464;2023-06-14T09:29:43;12.17;;;2.87;;
29838;SDS011;18669;53.356;-1.464;2023-06-14T09:32:28;11.85;;;3.05;;
29838;SDS011;18669;53.356;-1.464;2023-06-14T09:35:14;8.45;;;2.50;;
29838;SDS011;18669;53.356;-1.464;2023-06-14T09:38:02;7.28;;;2.80;;
29838;SDS011;18669;53.356;-1.464;2023-06-14T09:40:47;10.65;;;2.42;;
29838;SDS011;18669;53.356;-1.464;2023-06-14T09:43:33;10.02;;;2.72;;
29838;SDS011;18669;53.356;-1.464;2023-06-14T09:46:18;9.95;;;3.22;;
29838;SDS011;18669;53.356;-1.464;2023-06-14T09:49:04;14.07;;;2.50;;
29838;SDS011;18669;53.356;-1.464;2023-06-14T09:51:50;7.55;;;2.65;;
29838;SDS011;18669;53.356;-1.464;2023-06-14T09:54:40;8.27;;;2.58;;
29838;SDS011;18669;53.356;-1.464;2023-06-14T09:57:27;8.80;;;2.30;;
29838;SDS011;18669;53.356;-1.464;2023-06-14T10:00:15;12.63;;;2.45;;
29838;SDS011;18669;53.356;-1.464;2023-06-14T10:03:11;4.63;;;2.03;;
29838;SDS011;18669;53.356;-1.464;2023-06-14T10:06:03;11.10;;;2.08;;
29838;SDS011;18669;53.356;-1.464;2023-06-14T10:08:53;10.68;;;2.28;;
29838;SDS011;18669;53.356;-1.464;2023-06-14T10:11:41;7.57;;;2.17;;
29838;SDS011;18669;53.356;-1.464;2023-06-14T10:14:29;7.68;;;2.20;;
29838;SDS011;18669;53.356;-1.464;2023-06-14T10:23:19;11.00;;;2.05;;
29838;SDS011;18669;53.356;-1.464;2023-06-14T10:26:07;4.20;;;1.90;;
29838;SDS011;18669;53.356;-1.464;2023-06-14T10:28:56;6.20;;;2.45;;
29838;SDS011;18669;53.356;-1.464;2023-06-14T10:31:56;9.20;;;2.33;;
29838;SDS011;18669;53.356;-1.464;2023-06-14T10:34:42;9.10;;;2.03;;
29838;SDS011;18669;53.356;-1.464;2023-06-14T10:37:27;8.05;;;2.45;;
29838;SDS011;18669;53.356;-1.464;2023-06-14T10:40:29;11.35;;;1.90;;
29838;SDS011;18669;53.356;-1.464;2023-06-14T10:43:21;6.70;;;1.75;;
29838;SDS011;18669;53.356;-1.464;2023-06-14T10:46:14;5.07;;;2.03;;
29838;SDS011;18669;53.356;-1.464;2023-06-14T10:49:16;5.05;;;2.00;;
29838;SDS011;18669;53.356;-1.464;2023-06-14T10:52:05;7.50;;;2.30;;
29838;SDS011;18669;53.356;-1.464;2023-06-14T10:58:01;4.03;;;2.10;;
29838;SDS011;18669;53.356;-1.464;2023-06-14T11:00:47;6.03;;;1.70;;
29838;SDS011;18669;53.356;-1.464;2023-06-14T11:06:49;12.23;;;2.10;;
29838;SDS011;18669;53.356;-1.464;2023-06-14T11:09:51;6.47;;;1.40;;
29838;SDS011;18669;53.356;-1.464;2023-06-14T11:12:50;5.68;;;1.95;;
29838;SDS011;18669;53.356;-1.464;2023-06-14T11:15:39;5.57;;;1.92;;
29838;SDS011;18669;53.356;-1.464;2023-06-14T11:18:28;6.43;;;1.88;;
29838;SDS011;18669;53.356;-1.464;2023-06-14T11:24:02;8.23;;;1.80;;
29838;SDS011;18669;53.356;-1.464;2023-06-14T11:29:32;7.47;;;2.10;;
29838;SDS011;18669;53.356;-1.464;2023-06-14T11:35:02;10.13;;;1.92;;
29838;SDS011;18669;53.356;-1.464;2023-06-14T11:37:47;6.28;;;2.10;;
29838;SDS011;18669;53.356;-1.464;2023-06-14T11:40:33;6.40;;;2.15;;
29838;SDS011;18669;53.356;-1.464;2023-06-14T11:46:03;5.10;;;2.13;;
29838;SDS011;18669;53.356;-1.464;2023-06-14T11:48:47;6.72;;;2.00;;
29838;SDS011;18669;53.356;-1.464;2023-06-14T11:51:33;4.13;;;1.80;;
29838;SDS011;18669;53.356;-1.464;2023-06-14T11:54:18;5.28;;;1.85;;
29838;SDS011;18669;53.356;-1.464;2023-06-14T11:57:03;3.00;;;1.55;;
29838;SDS011;18669;53.356;-1.464;2023-06-14T11:59:49;5.88;;;2.10;;
29838;SDS011;18669;53.356;-1.464;2023-06-14T12:02:33;3.95;;;1.90;;
29838;SDS011;18669;53.356;-1.464;2023-06-14T12:05:20;5.30;;;1.88;;
29838;SDS011;18669;53.356;-1.464;2023-06-14T12:08:06;4.35;;;1.80;;
29838;SDS011;18669;53.356;-1.464;2023-06-14T12:10:52;9.80;;;2.00;;
29838;SDS011;18669;53.356;-1.464;2023-06-14T12:13:40;5.20;;;2.05;;
29838;SDS011;18669;53.356;-1.464;2023-06-14T12:16:29;8.45;;;1.98;;
29838;SDS011;18669;53.356;-1.464;2023-06-14T12:19:17;15.07;;;1.77;;
29838;SDS011;18669;53.356;-1.464;2023-06-14T12:22:03;6.40;;;2.05;;
29838;SDS011;18669;53.356;-1.464;2023-06-14T12:24:49;4.78;;;1.80;;
29838;SDS011;18669;53.356;-1.464;2023-06-14T12:30:18;4.67;;;1.80;;
29838;SDS011;18669;53.356;-1.464;2023-06-14T12:33:03;7.93;;;1.85;;
29838;SDS011;18669;53.356;-1.464;2023-06-14T12:35:48;4.85;;;1.60;;
29838;SDS011;18669;53.356;-1.464;2023-06-14T12:38:35;9.13;;;1.80;;
29838;SDS011;18669;53.356;-1.464;2023-06-14T12:41:21;3.72;;;1.83;;
29838;SDS011;18669;53.356;-1.464;2023-06-14T12:44:06;6.47;;;1.90;;
29838;SDS011;18669;53.356;-1.464;2023-06-14T12:46:51;5.13;;;2.00;;
29838;SDS011;18669;53.356;-1.464;2023-06-14T12:49:38;5.25;;;1.70;;
29838;SDS011;18669;53.356;-1.464;2023-06-14T12:52:24;7.63;;;1.70;;
29838;SDS011;18669;53.356;-1.464;2023-06-14T12:55:09;7.90;;;2.20;;
29838;SDS011;18669;53.356;-1.464;2023-06-14T12:57:54;9.45;;;1.70;;
29838;SDS011;18669;53.356;-1.464;2023-06-14T13:00:39;7.65;;;1.98;;
29838;SDS011;18669;53.356;-1.464;2023-06-14T13:03:26;14.85;;;2.28;;
29838;SDS011;18669;53.356;-1.464;2023-06-14T13:06:13;10.05;;;1.88;;
29838;SDS011;18669;53.356;-1.464;2023-06-14T13:09:00;7.55;;;2.00;;
29838;SDS011;18669;53.356;-1.464;2023-06-14T13:11:46;3.55;;;1.65;;
29838;SDS011;18669;53.356;-1.464;2023-06-14T13:14:34;8.82;;;1.92;;
29838;SDS011;18669;53.356;-1.464;2023-06-14T13:17:20;9.80;;;2.00;;
29838;SDS011;18669;53.356;-1.464;2023-06-14T13:20:06;5.88;;;1.98;;
29838;SDS011;18669;53.356;-1.464;2023-06-14T13:22:52;9.30;;;1.77;;
29838;SDS011;18669;53.356;-1.464;2023-06-14T13:25:38;10.90;;;1.65;;
29838;SDS011;18669;53.356;-1.464;2023-06-14T13:28:24;15.52;;;2.05;;
29838;SDS011;18669;53.356;-1.464;2023-06-14T13:31:09;3.22;;;1.50;;
29838;SDS011;18669;53.356;-1.464;2023-06-14T13:33:54;8.15;;;2.00;;
29838;SDS011;18669;53.356;-1.464;2023-06-14T13:36:39;6.78;;;1.85;;
29838;SDS011;18669;53.356;-1.464;2023-06-14T13:39:25;4.60;;;1.92;;
29838;SDS011;18669;53.356;-1.464;2023-06-14T13:42:10;6.50;;;1.77;;
29838;SDS011;18669;53.356;-1.464;2023-06-14T13:44:55;8.00;;;1.77;;
29838;SDS011;18669;53.356;-1.464;2023-06-14T13:47:40;2.53;;;1.70;;
29838;SDS011;18669;53.356;-1.464;2023-06-14T13:50:25;7.38;;;2.05;;
29838;SDS011;18669;53.356;-1.464;2023-06-14T13:53:10;5.45;;;1.77;;
29838;SDS011;18669;53.356;-1.464;2023-06-14T13:55:55;4.28;;;1.70;;
29838;SDS011;18669;53.356;-1.464;2023-06-14T13:58:41;6.25;;;1.90;;
29838;SDS011;18669;53.356;-1.464;2023-06-14T14:01:26;7.68;;;1.90;;
29838;SDS011;18669;53.356;-1.464;2023-06-14T14:04:13;9.82;;;1.88;;
29838;SDS011;18669;53.356;-1.464;2023-06-14T14:07:02;4.85;;;1.80;;
29838;SDS011;18669;53.356;-1.464;2023-06-14T14:09:49;6.60;;;1.45;;
29838;SDS011;18669;53.356;-1.464;2023-06-14T14:12:35;4.20;;;1.40;;
29838;SDS011;18669;53.356;-1.464;2023-06-14T14:15:20;13.93;;;1.95;;
29838;SDS011;18669;53.356;-1.464;2023-06-14T14:18:06;6.05;;;1.30;;
29838;SDS011;18669;53.356;-1.464;2023-06-14T14:20:51;9.32;;;1.75;;
29838;SDS011;18669;53.356;-1.464;2023-06-14T14:23:36;4.53;;;1.80;;
29838;SDS011;18669;53.356;-1.464;2023-06-14T14:26:21;6.68;;;1.40;;
29838;SDS011;18669;53.356;-1.464;2023-06-14T14:29:06;7.05;;;1.63;;
29838;SDS011;18669;53.356;-1.464;2023-06-14T14:31:51;3.45;;;1.20;;
29838;SDS011;18669;53.356;-1.464;2023-06-14T14:37:21;6.38;;;1.80;;
29838;SDS011;18669;53.356;-1.464;2023-06-14T14:40:07;9.00;;;1.52;;
29838;SDS011;18669;53.356;-1.464;2023-06-14T14:42:54;5.22;;;1.23;;
29838;SDS011;18669;53.356;-1.464;2023-06-14T14:45:39;7.78;;;1.65;;
29838;SDS011;18669;53.356;-1.464;2023-06-14T14:48:23;3.55;;;1.40;;
29838;SDS011;18669;53.356;-1.464;2023-06-14T14:51:08;4.50;;;1.50;;
29838;SDS011;18669;53.356;-1.464;2023-06-14T14:53:53;3.30;;;1.30;;
29838;SDS011;18669;53.356;-1.464;2023-06-14T14:56:38;11.55;;;2.60;;
29838;SDS011;18669;53.356;-1.464;2023-06-14T14:59:23;3.33;;;1.48;;
29838;SDS011;18669;53.356;-1.464;2023-06-14T15:02:08;4.40;;;1.23;;
29838;SDS011;18669;53.356;-1.464;2023-06-14T15:04:53;4.10;;;1.55;;
29838;SDS011;18669;53.356;-1.464;2023-06-14T15:07:38;4.05;;;1.30;;
29838;SDS011;18669;53.356;-1.464;2023-06-14T15:10:24;5.25;;;1.50;;
29838;SDS011;18669;53.356;-1.464;2023-06-14T15:15:53;3.10;;;1.17;;
29838;SDS011;18669;53.356;-1.464;2023-06-14T15:18:38;6.75;;;1.33;;
29838;SDS011;18669;53.356;-1.464;2023-06-14T15:24:09;8.35;;;1.58;;
29838;SDS011;18669;53.356;-1.464;2023-06-14T15:26:54;3.47;;;1.40;;
29838;SDS011;18669;53.356;-1.464;2023-06-14T15:32:25;2.92;;;1.40;;
29838;SDS011;18669;53.356;-1.464;2023-06-14T15:35:10;7.15;;;1.60;;
29838;SDS011;18669;53.356;-1.464;2023-06-14T15:37:56;6.53;;;1.50;;
29838;SDS011;18669;53.356;-1.464;2023-06-14T15:40:41;2.28;;;1.25;;
29838;SDS011;18669;53.356;-1.464;2023-06-14T15:43:26;6.03;;;1.55;;
29838;SDS011;18669;53.356;-1.464;2023-06-14T15:46:11;6.53;;;1.40;;
29838;SDS011;18669;53.356;-1.464;2023-06-14T15:48:56;6.35;;;1.40;;
29838;SDS011;18669;53.356;-1.464;2023-06-14T15:51:40;4.30;;;1.67;;
29838;SDS011;18669;53.356;-1.464;2023-06-14T15:54:26;4.82;;;1.40;;
29838;SDS011;18669;53.356;-1.464;2023-06-14T15:57:11;2.47;;;1.48;;
29838;SDS011;18669;53.356;-1.464;2023-06-14T15:59:56;6.78;;;1.58;;
29838;SDS011;18669;53.356;-1.464;2023-06-14T16:02:41;5.90;;;1.60;;
29838;SDS011;18669;53.356;-1.464;2023-06-14T16:05:25;11.60;;;1.75;;
29838;SDS011;18669;53.356;-1.464;2023-06-14T16:08:11;1.47;;;1.23;;
29838;SDS011;18669;53.356;-1.464;2023-06-14T16:10:55;6.40;;;1.80;;
29838;SDS011;18669;53.356;-1.464;2023-06-14T16:13:41;6.00;;;1.73;;
29838;SDS011;18669;53.356;-1.464;2023-06-14T16:16:26;3.08;;;1.67;;
29838;SDS011;18669;53.356;-1.464;2023-06-14T16:19:11;3.95;;;1.60;;
29838;SDS011;18669;53.356;-1.464;2023-06-14T16:21:56;2.63;;;1.60;;
29838;SDS011;18669;53.356;-1.464;2023-06-14T16:24:41;5.88;;;1.30;;
29838;SDS011;18669;53.356;-1.464;2023-06-14T16:27:26;5.03;;;1.40;;
29838;SDS011;18669;53.356;-1.464;2023-06-14T16:30:11;3.70;;;1.77;;
29838;SDS011;18669;53.356;-1.464;2023-06-14T16:32:56;21.10;;;1.80;;
29838;SDS011;18669;53.356;-1.464;2023-06-14T16:35:41;5.57;;;1.57;;
29838;SDS011;18669;53.356;-1.464;2023-06-14T16:38:26;3.95;;;1.55;;
29838;SDS011;18669;53.356;-1.464;2023-06-14T16:41:11;2.80;;;1.40;;
29838;SDS011;18669;53.356;-1.464;2023-06-14T16:43:57;6.95;;;1.50;;
29838;SDS011;18669;53.356;-1.464;2023-06-14T16:46:42;4.78;;;1.50;;
29838;SDS011;18669;53.356;-1.464;2023-06-14T16:49:27;8.70;;;2.97;;
29838;SDS011;18669;53.356;-1.464;2023-06-14T16:52:12;6.55;;;3.33;;
29838;SDS011;18669;53.356;-1.464;2023-06-14T16:54:57;12.45;;;2.92;;
29838;SDS011;18669;53.356;-1.464;2023-06-14T16:57:42;6.10;;;1.75;;
29838;SDS011;18669;53.356;-1.464;2023-06-14T17:00:27;2.90;;;1.40;;
29838;SDS011;18669;53.356;-1.464;2023-06-14T17:03:12;6.00;;;1.50;;
29838;SDS011;18669;53.356;-1.464;2023-06-14T17:05:56;5.45;;;1.50;;